• Join FlightAware (Why Join?)
  • Login
  • US Flag 
08:09AM EDT


 

Airport Tracker/Info


-or-


 

Live Flight TrackerFlight Track Log ✈ RPA3247 ✈ 24-Apr-2013 ✈ KDCA - KMSY

Flight Track Log - Related Links

Times and Time Zones

All times are in EDT time to prevent confusion due to time zone crossing. See the RPA3247 flight status page for this flight to view local times or setup timezone preferences in your user account.

Time Position Orientation Groundspeed Altitude Reporting Facility
EDT Latitude Longitude Course Direction KTS MPH feet Rate Location/Type
08:16PM 38.8000 -77.0333 233° Southwest 164 189 2,000  Level Potomac TRACON
08:17PM 38.7667 -77.0500 201° Southwest 225 259 3,600 1,500 Climbing Potomac TRACON
08:18PM 38.6852 -77.3463 237° Southwest  Level FlightAware Approximate
08:18PM 38.7500 -77.1333 256° West 234 269 5,000  Level Potomac TRACON
08:19PM 38.6266 -77.4494 234° Southwest  Level FlightAware Approximate
08:19PM 38.7333 -77.2167 256° West 244 281 7,400  Level Potomac TRACON
08:20PM 38.5841 -77.5642 247° West  Level FlightAware Approximate
08:20PM 38.7333 -77.2833 270° West 253 291 9,700  Level Potomac TRACON
08:21PM 38.5283 -77.6695 233° Southwest  Level FlightAware Approximate
08:21PM 38.7167 -77.4000 260° West 275 316 12,900  Level Potomac TRACON
08:22PM 38.6667 -77.4833 232° Southwest 292 336 14,800 2,100 Climbing Potomac TRACON
08:23PM 38.6167 -77.5667 232° Southwest 304 350 17,200 1,980 Climbing Potomac TRACON
08:23PM 38.5944 -77.5892 218° Southwest 300 345 17,700 2,040 Climbing Washington Center
08:24PM 38.5431 -77.6728 232° Southwest 300 345 20,200 2,100 Climbing Washington Center
08:25PM 38.4914 -77.7589 233° Southwest 300 345 21,900 1,500 Climbing Washington Center
08:26PM 38.4419 -77.8528 236° Southwest 310 357 23,300 1,860 Climbing Washington Center
08:27PM 38.3919 -77.9467 236° Southwest 323 372 25,700 1,440 Climbing Washington Center
08:28PM 38.3444 -78.0406 237° Southwest 323 372 26,200 780 Climbing Washington Center
08:29PM 38.2922 -78.1394 236° Southwest 328 377 27,300 1,080 Climbing Washington Center
08:30PM 38.2339 -78.2378 233° Southwest 334 384 28,400 1,140 Climbing Washington Center
08:31PM 38.1589 -78.3197 221° Southwest 347 399 29,600 1,140 Climbing Washington Center
08:32PM 38.0819 -78.4014 220° Southwest 358 412 30,700 1,080 Climbing Washington Center
08:33PM 38.0150 -78.4964 228° Southwest 365 420 31,800 600 Climbing Washington Center
08:34PM 37.9728 -78.6028 243° Southwest 358 412 32,000 60 Climbing Washington Center
08:35PM 37.9239 -78.7269 244° Southwest 358 412 32,000  Level Washington Center
08:36PM 37.8792 -78.8383 243° Southwest 358 412 32,000  Level Washington Center
08:37PM 37.8344 -78.9442 242° Southwest 358 412 32,000  Level Washington Center
08:38PM 37.7897 -79.0553 243° Southwest 358 412 32,000  Level Washington Center
08:39PM 37.7492 -79.1558 243° Southwest 364 419 32,000  Level Washington Center
08:40PM 37.6975 -79.2767 242° Southwest 364 419 32,000  Level Washington Center
08:41PM 37.6525 -79.3822 242° Southwest 358 412 32,000  Level Washington Center
08:42PM 37.6072 -79.4925 243° Southwest 358 412 32,000  Level Washington Center
08:43PM 37.5619 -79.6003 242° Southwest 358 412 32,000  Level Washington Center
08:44PM 37.5167 -79.7078 242° Southwest 358 412 32,000  Level Washington Center
08:45PM 37.4711 -79.8153 242° Southwest 353 406 32,000  Level Washington Center
08:46PM 37.4278 -79.9175 242° Southwest 361 415 32,000  Level Washington Center
08:48PM 37.3386 -80.1236 241° Southwest 361 415 32,000  Level Atlanta Center
08:49PM 37.2881 -80.2408 242° Southwest 361 415 32,000  Level Atlanta Center
08:50PM 37.2433 -80.3472 242° Southwest 361 415 32,000  Level Atlanta Center
08:51PM 37.1967 -80.4564 242° Southwest 354 407 32,000  Level Atlanta Center
08:52PM 37.1517 -80.5600 241° Southwest 354 407 32,000  Level Atlanta Center
08:53PM 37.1106 -80.6553 242° Southwest 354 407 32,000  Level Atlanta Center
08:54PM 37.0678 -80.7639 244° Southwest 354 407 32,000  Level Atlanta Center
08:55PM 37.0267 -80.8722 245° Southwest 354 407 32,000  Level Atlanta Center
08:56PM 36.9839 -80.9933 246° West 344 396 32,000  Level Atlanta Center
08:57PM 36.9447 -81.1014 246° West 344 396 32,000  Level Atlanta Center
08:58PM 36.9058 -81.2144 247° West 344 396 32,000  Level Atlanta Center
08:59PM 36.8667 -81.3222 246° West 344 396 32,000  Level Atlanta Center
09:00PM 36.8292 -81.4194 244° Southwest 344 396 32,000  Level Atlanta Center
09:01PM 36.7917 -81.5297 247° West 344 396 32,000  Level Atlanta Center
09:02PM 36.7525 -81.6500 248° West 344 396 32,000  Level Atlanta Center
09:03PM 36.7128 -81.7600 246° West 344 396 32,000  Level Atlanta Center
09:04PM 36.6731 -81.8697 246° West 344 396 32,000  Level Atlanta Center
09:05PM 36.6292 -81.9744 242° Southwest 344 396 32,000  Level Atlanta Center
09:06PM 36.5744 -82.0742 236° Southwest 355 409 32,000  Level Atlanta Center
09:07PM 36.5175 -82.1736 235° Southwest 360 414 32,000  Level Atlanta Center
09:08PM 36.4628 -82.2706 235° Southwest 355 409 32,000  Level Atlanta Center
09:09PM 36.4078 -82.3697 235° Southwest 355 409 32,000  Level Atlanta Center
09:10PM 36.3506 -82.4689 234° Southwest 360 414 32,000  Level Atlanta Center
09:11PM 36.2956 -82.5678 235° Southwest 360 414 32,000  Level Atlanta Center
09:12PM 36.2361 -82.6642 233° Southwest 360 414 32,000  Level Atlanta Center
09:13PM 36.1789 -82.7681 236° Southwest 360 414 32,000  Level Atlanta Center
09:14PM 36.1236 -82.8667 235° Southwest 360 414 32,000  Level Atlanta Center
09:15PM 36.0722 -82.9522 233° Southwest 360 414 32,000  Level Atlanta Center
09:16PM 36.0167 -83.0531 236° Southwest 360 414 32,000  Level Atlanta Center
09:17PM 35.9611 -83.1486 234° Southwest 360 414 32,000  Level Atlanta Center
09:18PM 35.8994 -83.2569 235° Southwest 360 414 32,000  Level Atlanta Center
09:19PM 35.8417 -83.3572 235° Southwest 360 414 32,000  Level Atlanta Center
09:20PM 35.7858 -83.4578 236° Southwest 360 414 32,000  Level Atlanta Center
09:21PM 35.7278 -83.5553 234° Southwest 360 414 32,000  Level Atlanta Center
09:22PM 35.6697 -83.6528 234° Southwest 360 414 32,000  Level Atlanta Center
09:23PM 35.6178 -83.7372 233° Southwest 360 414 32,000  Level Atlanta Center
09:24PM 35.5594 -83.8369 234° Southwest 360 414 32,000  Level Atlanta Center
09:25PM 35.5011 -83.9367 234° Southwest 360 414 32,000  Level Atlanta Center
09:26PM 35.4428 -84.0361 234° Southwest 360 414 32,000  Level Atlanta Center
09:27PM 35.3864 -84.1306 234° Southwest 360 414 32,000  Level Atlanta Center
09:29PM 35.3213 -84.2327 232° Southwest  Level FlightAware Approximate
09:29PM 35.2694 -84.3236 232° Southwest 360 414 32,000  Level Atlanta Center
09:30PM 35.2108 -84.4225 234° Southwest 360 414 32,000  Level Atlanta Center
09:31PM 35.1519 -84.5214 234° Southwest 365 420 32,000  Level Atlanta Center
09:32PM 35.0931 -84.6175 233° Southwest 365 420 32,000  Level Atlanta Center
09:33PM 35.0342 -84.7161 234° Southwest 365 420 32,000  Level Atlanta Center
09:34PM 34.9753 -84.8144 234° Southwest 365 420 32,000  Level Atlanta Center
09:35PM 34.9161 -84.9128 234° Southwest 365 420 32,000  Level Atlanta Center
09:36PM 34.8569 -85.0083 233° Southwest 360 414 32,000  Level Atlanta Center
09:37PM 34.7978 -85.1036 233° Southwest 360 414 32,000  Level Atlanta Center
09:38PM 34.7383 -85.2042 234° Southwest 360 414 32,000  Level Atlanta Center
09:39PM 34.6789 -85.3017 233° Southwest 365 420 32,000  Level Atlanta Center
09:40PM 34.6194 -85.3992 233° Southwest 365 420 32,000  Level Atlanta Center
09:41PM 34.5578 -85.4967 232° Southwest 365 420 32,000  Level Atlanta Center
09:42PM 34.4961 -85.5939 232° Southwest 365 420 32,000  Level Atlanta Center
09:43PM 34.4364 -85.6911 233° Southwest 365 420 32,000  Level Atlanta Center
09:44PM 34.3703 -85.8006 234° Southwest 365 420 32,000  Level Atlanta Center
09:45PM 34.3147 -85.8797 230° Southwest 359 413 32,000  Level Atlanta Center
09:46PM 34.2547 -85.9814 234° Southwest 365 420 32,000  Level Atlanta Center
09:47PM 34.1928 -86.0756 232° Southwest 365 420 32,000  Level Atlanta Center
09:48PM 34.1306 -86.1744 233° Southwest 365 420 32,000  Level Atlanta Center
09:49PM 34.0706 -86.2708 233° Southwest 365 420 32,000  Level Atlanta Center
09:50PM 34.0081 -86.3694 233° Southwest 365 420 32,000  Level Atlanta Center
09:51PM 33.9478 -86.4653 233° Southwest 365 420 32,000  Level Atlanta Center
09:52PM 33.8853 -86.5611 232° Southwest 365 420 32,000  Level Atlanta Center
09:53PM 33.8228 -86.6594 233° Southwest 365 420 32,000  Level Atlanta Center
09:54PM 33.7622 -86.7550 233° Southwest 365 420 32,000  Level Atlanta Center
09:55PM 33.7017 -86.8478 232° Southwest 365 420 32,000  Level Atlanta Center
09:56PM 33.6369 -86.9431 231° Southwest 365 420 32,000  Level Atlanta Center
09:57PM 33.5761 -87.0383 233° Southwest 365 420 32,000  Level Atlanta Center
09:58PM 33.5111 -87.1356 231° Southwest 365 420 32,000  Level Atlanta Center
09:59PM 33.4481 -87.2331 232° Southwest 365 420 32,000  Level Atlanta Center
10:00PM 33.3853 -87.3253 231° Southwest 365 420 32,000  Level Atlanta Center
10:01PM 33.3200 -87.4222 231° Southwest 365 420 32,000  Level Atlanta Center
10:02PM 33.2567 -87.5192 232° Southwest 365 420 32,000  Level Atlanta Center
10:03PM 33.1914 -87.6158 231° Southwest 365 420 32,000  Level Atlanta Center
10:05PM 33.0894 -87.7686 231° Southwest 366 421 32,000  Level Memphis Center
10:06PM 33.0308 -87.8522 230° Southwest 372 428 32,000  Level Memphis Center
10:07PM 32.9722 -87.9503 235° Southwest 372 428 32,000  Level Memphis Center
10:08PM 32.9050 -88.0436 229° Southwest 372 428 32,000  Level Memphis Center
10:09PM 32.8378 -88.1394 230° Southwest 372 428 32,000  Level Memphis Center
10:10PM 32.7728 -88.2350 231° Southwest 377 434 32,000  Level Memphis Center
10:11PM 32.7097 -88.3303 232° Southwest 377 434 32,000  Level Memphis Center
10:12PM 32.6442 -88.4231 230° Southwest 377 434 32,000  Level Memphis Center
10:13PM 32.5789 -88.5181 231° Southwest 377 434 32,000  Level Memphis Center
10:14PM 32.5114 -88.6131 230° Southwest 377 434 32,000  Level Memphis Center
10:15PM 32.4458 -88.7081 231° Southwest 377 434 32,000  Level Memphis Center
10:16PM 32.3825 -88.8025 232° Southwest 377 434 32,000  Level Memphis Center
10:17PM 32.3019 -88.8828 220° Southwest 377 434 32,000  Level Memphis Center
10:18PM 32.2172 -88.9603 218° Southwest 382 440 32,000  Level Memphis Center
10:19PM 32.1347 -89.0447 221° Southwest 392 451 32,000  Level Memphis Center
10:20PM 32.0519 -89.1244 219° Southwest 397 457 32,000  Level Memphis Center
10:21PM 31.9692 -89.2014 218° Southwest 397 457 32,000 -660 Level Memphis Center
10:23PM 31.7706 -89.3917 219° Southwest 387 445 29,800 -1,140 Descending Houston Center
10:24PM 31.6894 -89.4689 219° Southwest 380 437 28,200 -1,140 Descending Houston Center
10:25PM 31.6003 -89.5525 219° Southwest 368 423 27,500 -1,080 Descending Houston Center
10:26PM 31.5217 -89.6292 220° Southwest 368 423 26,100 -1,440 Descending Houston Center
10:27PM 31.4439 -89.7025 219° Southwest 359 413 24,600 -1,500 Descending Houston Center
10:28PM 31.3664 -89.7747 219° Southwest 357 411 23,100 -1,500 Descending Houston Center
10:29PM 31.2919 -89.8464 219° Southwest 349 402 21,600 -1,500 Descending Houston Center
10:30PM 31.2064 -89.8969 207° Southwest 348 400 20,100 -1,500 Descending Houston Center
10:31PM 31.1147 -89.9386 201° Southwest 353 406 18,600 -1,380 Descending Houston Center
10:32PM 31.0261 -89.9808 202° Southwest 348 400 17,400 -1,500 Descending Houston Center
10:33PM 30.9189 -90.0297 201° Southwest 346 398 15,600 -1,620 Descending Houston Center
10:34PM 30.8319 -90.0700 202° Southwest 342 394 14,200 -1,440 Descending Houston Center
10:35PM 30.7633 -90.1011 201° Southwest 330 380 13,100 -1,380 Descending Houston Center
10:35PM 30.7478 -90.1081 201° Southwest 333 383 12,800 -1,380 Descending Houston Center
10:36PM 30.6808 -90.1383 201° Southwest 314 361 11,700 -1,380 Descending Houston Center
10:37PM 30.6675 -90.1447 202° Southwest 317 365 11,400 -720 Descending Houston Center
10:37PM 30.6047 -90.1731 201° Southwest 295 339 11,000 -420 Descending Houston Center
10:38PM 30.5917 -90.1783 199° South 299 344 11,000  Level Houston Center
10:38PM 30.5281 -90.2003 197° South 293 337 11,000  Level Houston Center
10:39PM 30.5139 -90.1994 177° South 294 338 11,000  Level Houston Center
10:39PM 30.4444 -90.1939 176° South 303 349 11,000 -120 Level Houston Center
10:40PM 30.4311 -90.1942 181° South 300 345 10,900 -1,620 Descending Houston Center
10:40PM 30.3628 -90.1878 175° South 296 341 9,400 -1,800 Descending Houston Center
10:41PM 30.3497 -90.1878 180° South 296 341 9,100 -1,980 Descending Houston Center
10:41PM 30.2908 -90.2292 211° Southwest 278 320 7,400 -2,280 Descending Houston Center
10:42PM 30.2781 -90.2481 232° Southwest 280 322 6,800 -1,800 Descending Houston Center
10:42PM 30.2486 -90.2839 226° Southwest 272 313 5,800 -1,680 Descending Houston Center
10:43PM 30.2275 -90.3128 230° Southwest 275 316 5,100 -1,680 Descending Houston Center
10:43PM 30.1942 -90.3533 226° Southwest 265 305 4,100 -1,380 Descending Houston Center
10:44PM 30.1783 -90.3750 230° Southwest 270 311 3,700 -540 Descending Houston Center
10:44PM 30.1519 -90.4056 225° Southwest 205 236 3,600 -540 Descending Houston Center
10:45PM 30.1411 -90.4219 233° Southwest 223 257 3,200 -1,200 Descending Houston Center
10:45PM 30.1197 -90.4475 226° Southwest 161 185 2,400 -1,320 Descending Houston Center
10:46PM 30.1083 -90.4622 228° Southwest 190 219 1,900 -360 Descending Houston Center
10:46PM 30.0700 -90.4639 182° South 182 209 2,000 120 Climbing Houston Center